sensor_id;sensor_type;location;lat;lon;timestamp;P1;durP1;ratioP1;P2;durP2;ratioP2
25780;SDS011;13626;48.128;11.628;2022-12-10T00:02:26;37.95;;;19.77;;
25780;SDS011;13626;48.128;11.628;2022-12-10T00:04:53;38.85;;;20.08;;
25780;SDS011;13626;48.128;11.628;2022-12-10T00:07:20;40.05;;;21.02;;
25780;SDS011;13626;48.128;11.628;2022-12-10T00:09:47;36.35;;;19.02;;
25780;SDS011;13626;48.128;11.628;2022-12-10T00:12:14;38.40;;;19.15;;
25780;SDS011;13626;48.128;11.628;2022-12-10T00:14:42;37.13;;;19.83;;
25780;SDS011;13626;48.128;11.628;2022-12-10T00:17:09;41.47;;;20.50;;
25780;SDS011;13626;48.128;11.628;2022-12-10T00:19:38;38.25;;;20.02;;
25780;SDS011;13626;48.128;11.628;2022-12-10T00:22:05;36.38;;;19.95;;
25780;SDS011;13626;48.128;11.628;2022-12-10T00:24:32;35.60;;;18.30;;
25780;SDS011;13626;48.128;11.628;2022-12-10T00:26:59;36.30;;;20.45;;
25780;SDS011;13626;48.128;11.628;2022-12-10T00:29:27;41.55;;;19.58;;
25780;SDS011;13626;48.128;11.628;2022-12-10T00:31:54;40.40;;;20.70;;
25780;SDS011;13626;48.128;11.628;2022-12-10T00:34:21;39.40;;;21.05;;
25780;SDS011;13626;48.128;11.628;2022-12-10T00:36:48;40.35;;;19.80;;
25780;SDS011;13626;48.128;11.628;2022-12-10T00:39:17;41.10;;;21.95;;
25780;SDS011;13626;48.128;11.628;2022-12-10T00:41:44;41.60;;;21.17;;
25780;SDS011;13626;48.128;11.628;2022-12-10T00:44:12;40.47;;;22.05;;
25780;SDS011;13626;48.128;11.628;2022-12-10T00:46:39;42.03;;;21.67;;
25780;SDS011;13626;48.128;11.628;2022-12-10T00:49:06;47.70;;;21.80;;
25780;SDS011;13626;48.128;11.628;2022-12-10T00:51:34;48.05;;;22.20;;
25780;SDS011;13626;48.128;11.628;2022-12-10T00:54:01;45.88;;;21.92;;
25780;SDS011;13626;48.128;11.628;2022-12-10T00:56:29;48.85;;;23.25;;
25780;SDS011;13626;48.128;11.628;2022-12-10T00:58:56;42.45;;;22.00;;
25780;SDS011;13626;48.128;11.628;2022-12-10T01:01:24;45.33;;;22.33;;
25780;SDS011;13626;48.128;11.628;2022-12-10T01:03:53;53.83;;;24.65;;
25780;SDS011;13626;48.128;11.628;2022-12-10T01:08:52;54.53;;;24.50;;
25780;SDS011;13626;48.128;11.628;2022-12-10T01:11:20;53.92;;;23.88;;
25780;SDS011;13626;48.128;11.628;2022-12-10T01:13:48;51.40;;;22.58;;
25780;SDS011;13626;48.128;11.628;2022-12-10T01:16:17;51.13;;;22.88;;
25780;SDS011;13626;48.128;11.628;2022-12-10T01:18:44;56.92;;;23.20;;
25780;SDS011;13626;48.128;11.628;2022-12-10T01:21:16;54.88;;;23.90;;
25780;SDS011;13626;48.128;11.628;2022-12-10T01:23:44;54.28;;;23.30;;
25780;SDS011;13626;48.128;11.628;2022-12-10T01:26:13;55.08;;;22.42;;
25780;SDS011;13626;48.128;11.628;2022-12-10T01:28:41;58.42;;;24.67;;
25780;SDS011;13626;48.128;11.628;2022-12-10T01:31:10;60.60;;;24.25;;
25780;SDS011;13626;48.128;11.628;2022-12-10T01:33:37;54.58;;;23.83;;
25780;SDS011;13626;48.128;11.628;2022-12-10T01:36:08;52.60;;;21.92;;
25780;SDS011;13626;48.128;11.628;2022-12-10T01:38:36;52.75;;;22.73;;
25780;SDS011;13626;48.128;11.628;2022-12-10T01:41:04;54.30;;;22.23;;
25780;SDS011;13626;48.128;11.628;2022-12-10T01:46:18;54.08;;;21.55;;
25780;SDS011;13626;48.128;11.628;2022-12-10T01:48:46;50.53;;;21.13;;
25780;SDS011;13626;48.128;11.628;2022-12-10T01:51:14;50.03;;;21.70;;
25780;SDS011;13626;48.128;11.628;2022-12-10T01:53:42;46.88;;;22.23;;
25780;SDS011;13626;48.128;11.628;2022-12-10T01:56:10;47.72;;;22.52;;
25780;SDS011;13626;48.128;11.628;2022-12-10T01:58:37;51.63;;;23.27;;
25780;SDS011;13626;48.128;11.628;2022-12-10T02:01:07;51.10;;;23.42;;
25780;SDS011;13626;48.128;11.628;2022-12-10T02:03:43;48.08;;;22.00;;
25780;SDS011;13626;48.128;11.628;2022-12-10T02:11:56;44.70;;;21.15;;
25780;SDS011;13626;48.128;11.628;2022-12-10T02:14:28;45.88;;;20.92;;
25780;SDS011;13626;48.128;11.628;2022-12-10T02:17:02;45.15;;;21.13;;
25780;SDS011;13626;48.128;11.628;2022-12-10T02:19:44;46.28;;;20.42;;
25780;SDS011;13626;48.128;11.628;2022-12-10T02:22:17;45.60;;;20.70;;
25780;SDS011;13626;48.128;11.628;2022-12-10T02:24:46;37.50;;;19.13;;
25780;SDS011;13626;48.128;11.628;2022-12-10T02:27:19;40.17;;;19.65;;
25780;SDS011;13626;48.128;11.628;2022-12-10T02:32:58;40.75;;;19.42;;
25780;SDS011;13626;48.128;11.628;2022-12-10T02:35:16;38.15;;;19.17;;
25780;SDS011;13626;48.128;11.628;2022-12-10T02:37:47;39.08;;;18.90;;
25780;SDS011;13626;48.128;11.628;2022-12-10T02:40:17;35.28;;;18.30;;
25780;SDS011;13626;48.128;11.628;2022-12-10T02:42:45;37.15;;;19.25;;
25780;SDS011;13626;48.128;11.628;2022-12-10T02:45:14;36.83;;;19.08;;
25780;SDS011;13626;48.128;11.628;2022-12-10T02:47:42;39.83;;;18.88;;
25780;SDS011;13626;48.128;11.628;2022-12-10T02:50:10;36.95;;;19.52;;
25780;SDS011;13626;48.128;11.628;2022-12-10T02:52:37;40.55;;;19.65;;
25780;SDS011;13626;48.128;11.628;2022-12-10T02:55:04;40.17;;;19.48;;
25780;SDS011;13626;48.128;11.628;2022-12-10T03:00:18;36.97;;;18.52;;
25780;SDS011;13626;48.128;11.628;2022-12-10T03:06:17;38.17;;;19.17;;
25780;SDS011;13626;48.128;11.628;2022-12-10T03:11:12;34.72;;;18.15;;
25780;SDS011;13626;48.128;11.628;2022-12-10T03:16:19;39.50;;;18.80;;
25780;SDS011;13626;48.128;11.628;2022-12-10T03:18:47;38.55;;;19.80;;
25780;SDS011;13626;48.128;11.628;2022-12-10T03:21:16;39.28;;;18.92;;
25780;SDS011;13626;48.128;11.628;2022-12-10T03:23:46;44.05;;;19.30;;
25780;SDS011;13626;48.128;11.628;2022-12-10T03:26:13;40.47;;;20.05;;
25780;SDS011;13626;48.128;11.628;2022-12-10T03:28:42;42.78;;;19.55;;
25780;SDS011;13626;48.128;11.628;2022-12-10T03:31:12;42.80;;;20.02;;
25780;SDS011;13626;48.128;11.628;2022-12-10T03:33:40;44.67;;;20.63;;
25780;SDS011;13626;48.128;11.628;2022-12-10T03:36:07;42.85;;;19.17;;
25780;SDS011;13626;48.128;11.628;2022-12-10T03:38:35;45.65;;;20.45;;
25780;SDS011;13626;48.128;11.628;2022-12-10T03:41:04;43.00;;;19.92;;
25780;SDS011;13626;48.128;11.628;2022-12-10T03:43:31;41.72;;;19.40;;
25780;SDS011;13626;48.128;11.628;2022-12-10T03:45:58;43.17;;;20.00;;
25780;SDS011;13626;48.128;11.628;2022-12-10T03:48:25;45.17;;;20.85;;
25780;SDS011;13626;48.128;11.628;2022-12-10T03:50:53;46.83;;;21.27;;
25780;SDS011;13626;48.128;11.628;2022-12-10T03:53:20;46.33;;;21.20;;
25780;SDS011;13626;48.128;11.628;2022-12-10T03:55:47;45.92;;;21.77;;
25780;SDS011;13626;48.128;11.628;2022-12-10T03:58:14;47.00;;;20.45;;
25780;SDS011;13626;48.128;11.628;2022-12-10T04:00:45;44.47;;;20.83;;
25780;SDS011;13626;48.128;11.628;2022-12-10T04:03:13;42.00;;;20.25;;
25780;SDS011;13626;48.128;11.628;2022-12-10T04:05:40;44.13;;;20.23;;
25780;SDS011;13626;48.128;11.628;2022-12-10T04:08:07;42.60;;;19.40;;
25780;SDS011;13626;48.128;11.628;2022-12-10T04:10:35;46.13;;;20.70;;
25780;SDS011;13626;48.128;11.628;2022-12-10T04:13:03;42.03;;;19.10;;
25780;SDS011;13626;48.128;11.628;2022-12-10T04:15:48;43.13;;;19.27;;
25780;SDS011;13626;48.128;11.628;2022-12-10T04:18:34;40.70;;;19.73;;
25780;SDS011;13626;48.128;11.628;2022-12-10T04:21:02;41.17;;;19.13;;
25780;SDS011;13626;48.128;11.628;2022-12-10T04:23:47;46.17;;;19.80;;
25780;SDS011;13626;48.128;11.628;2022-12-10T04:26:33;43.22;;;19.23;;
25780;SDS011;13626;48.128;11.628;2022-12-10T04:29:20;41.25;;;17.77;;
25780;SDS011;13626;48.128;11.628;2022-12-10T04:31:47;41.03;;;18.27;;
25780;SDS011;13626;48.128;11.628;2022-12-10T04:34:14;43.08;;;18.73;;
25780;SDS011;13626;48.128;11.628;2022-12-10T04:36:41;47.75;;;20.50;;
25780;SDS011;13626;48.128;11.628;2022-12-10T04:39:08;42.67;;;20.00;;
25780;SDS011;13626;48.128;11.628;2022-12-10T04:41:41;46.28;;;20.08;;
25780;SDS011;13626;48.128;11.628;2022-12-10T04:44:09;41.28;;;19.23;;
25780;SDS011;13626;48.128;11.628;2022-12-10T04:46:36;36.85;;;17.52;;
25780;SDS011;13626;48.128;11.628;2022-12-10T04:49:04;37.30;;;17.80;;
25780;SDS011;13626;48.128;11.628;2022-12-10T04:51:31;43.35;;;18.83;;
25780;SDS011;13626;48.128;11.628;2022-12-10T04:53:59;40.05;;;19.77;;
25780;SDS011;13626;48.128;11.628;2022-12-10T04:56:26;40.42;;;18.02;;
25780;SDS011;13626;48.128;11.628;2022-12-10T04:58:54;42.15;;;20.15;;
25780;SDS011;13626;48.128;11.628;2022-12-10T05:01:21;43.30;;;19.85;;
25780;SDS011;13626;48.128;11.628;2022-12-10T05:03:49;45.33;;;19.48;;
25780;SDS011;13626;48.128;11.628;2022-12-10T05:06:16;48.63;;;21.27;;
25780;SDS011;13626;48.128;11.628;2022-12-10T05:08:44;41.55;;;20.35;;
25780;SDS011;13626;48.128;11.628;2022-12-10T05:11:15;43.40;;;18.90;;
25780;SDS011;13626;48.128;11.628;2022-12-10T05:13:43;41.67;;;19.15;;
25780;SDS011;13626;48.128;11.628;2022-12-10T05:16:12;45.83;;;21.02;;
25780;SDS011;13626;48.128;11.628;2022-12-10T05:18:39;44.70;;;19.80;;
25780;SDS011;13626;48.128;11.628;2022-12-10T05:21:07;43.38;;;19.15;;
25780;SDS011;13626;48.128;11.628;2022-12-10T05:23:36;42.45;;;19.85;;
25780;SDS011;13626;48.128;11.628;2022-12-10T05:26:04;40.95;;;19.27;;
25780;SDS011;13626;48.128;11.628;2022-12-10T05:28:35;40.53;;;19.20;;
25780;SDS011;13626;48.128;11.628;2022-12-10T05:31:03;41.20;;;19.85;;
25780;SDS011;13626;48.128;11.628;2022-12-10T05:33:31;42.53;;;20.80;;
25780;SDS011;13626;48.128;11.628;2022-12-10T05:35:59;43.03;;;20.58;;
25780;SDS011;13626;48.128;11.628;2022-12-10T05:38:27;45.95;;;21.20;;
25780;SDS011;13626;48.128;11.628;2022-12-10T05:40:55;48.83;;;21.65;;
25780;SDS011;13626;48.128;11.628;2022-12-10T05:43:22;47.60;;;21.30;;
25780;SDS011;13626;48.128;11.628;2022-12-10T05:45:49;41.45;;;20.33;;
25780;SDS011;13626;48.128;11.628;2022-12-10T05:48:16;39.22;;;19.60;;
25780;SDS011;13626;48.128;11.628;2022-12-10T05:50:44;39.65;;;20.30;;
25780;SDS011;13626;48.128;11.628;2022-12-10T05:53:11;43.88;;;20.52;;
25780;SDS011;13626;48.128;11.628;2022-12-10T05:55:40;46.53;;;21.20;;
25780;SDS011;13626;48.128;11.628;2022-12-10T05:58:07;39.10;;;19.10;;
25780;SDS011;13626;48.128;11.628;2022-12-10T06:00:34;40.78;;;20.20;;
25780;SDS011;13626;48.128;11.628;2022-12-10T06:03:01;39.92;;;20.17;;
25780;SDS011;13626;48.128;11.628;2022-12-10T06:05:28;45.42;;;21.17;;
25780;SDS011;13626;48.128;11.628;2022-12-10T06:07:55;47.45;;;21.63;;
25780;SDS011;13626;48.128;11.628;2022-12-10T06:10:23;45.47;;;21.33;;
25780;SDS011;13626;48.128;11.628;2022-12-10T06:12:50;41.90;;;19.88;;
25780;SDS011;13626;48.128;11.628;2022-12-10T06:15:17;43.25;;;21.67;;
25780;SDS011;13626;48.128;11.628;2022-12-10T06:17:44;42.78;;;21.88;;
25780;SDS011;13626;48.128;11.628;2022-12-10T06:20:11;41.63;;;20.20;;
25780;SDS011;13626;48.128;11.628;2022-12-10T06:22:38;42.78;;;20.42;;
25780;SDS011;13626;48.128;11.628;2022-12-10T06:25:06;42.58;;;20.52;;
25780;SDS011;13626;48.128;11.628;2022-12-10T06:27:33;39.83;;;20.65;;
25780;SDS011;13626;48.128;11.628;2022-12-10T06:30:00;45.95;;;20.13;;
25780;SDS011;13626;48.128;11.628;2022-12-10T06:32:27;43.85;;;21.33;;
25780;SDS011;13626;48.128;11.628;2022-12-10T06:34:55;42.70;;;21.33;;
25780;SDS011;13626;48.128;11.628;2022-12-10T06:37:22;46.22;;;21.67;;
25780;SDS011;13626;48.128;11.628;2022-12-10T06:39:52;43.42;;;21.30;;
25780;SDS011;13626;48.128;11.628;2022-12-10T06:42:19;46.20;;;21.42;;
25780;SDS011;13626;48.128;11.628;2022-12-10T06:44:47;47.10;;;21.45;;
25780;SDS011;13626;48.128;11.628;2022-12-10T06:47:14;47.78;;;21.77;;
25780;SDS011;13626;48.128;11.628;2022-12-10T06:49:41;39.97;;;20.35;;
25780;SDS011;13626;48.128;11.628;2022-12-10T06:52:08;39.60;;;20.08;;
25780;SDS011;13626;48.128;11.628;2022-12-10T06:54:35;45.45;;;20.52;;
25780;SDS011;13626;48.128;11.628;2022-12-10T06:57:03;40.05;;;20.73;;
25780;SDS011;13626;48.128;11.628;2022-12-10T06:59:30;37.17;;;18.88;;
25780;SDS011;13626;48.128;11.628;2022-12-10T07:01:57;39.00;;;20.23;;
25780;SDS011;13626;48.128;11.628;2022-12-10T07:04:24;42.67;;;20.45;;
25780;SDS011;13626;48.128;11.628;2022-12-10T07:06:52;39.85;;;20.55;;
25780;SDS011;13626;48.128;11.628;2022-12-10T07:09:19;35.28;;;19.45;;
25780;SDS011;13626;48.128;11.628;2022-12-10T07:11:46;39.33;;;19.92;;
25780;SDS011;13626;48.128;11.628;2022-12-10T07:14:14;36.42;;;18.90;;
25780;SDS011;13626;48.128;11.628;2022-12-10T07:16:42;43.28;;;19.65;;
25780;SDS011;13626;48.128;11.628;2022-12-10T07:19:10;40.92;;;20.40;;
25780;SDS011;13626;48.128;11.628;2022-12-10T07:21:39;37.80;;;19.00;;
25780;SDS011;13626;48.128;11.628;2022-12-10T07:24:09;36.80;;;19.30;;
25780;SDS011;13626;48.128;11.628;2022-12-10T07:26:37;40.47;;;20.48;;
25780;SDS011;13626;48.128;11.628;2022-12-10T07:29:05;37.45;;;19.13;;
25780;SDS011;13626;48.128;11.628;2022-12-10T07:31:33;38.42;;;19.40;;
25780;SDS011;13626;48.128;11.628;2022-12-10T07:34:01;35.67;;;19.13;;
25780;SDS011;13626;48.128;11.628;2022-12-10T07:36:28;37.67;;;19.33;;
25780;SDS011;13626;48.128;11.628;2022-12-10T07:38:55;34.88;;;18.92;;
25780;SDS011;13626;48.128;11.628;2022-12-10T07:41:22;37.70;;;19.65;;
25780;SDS011;13626;48.128;11.628;2022-12-10T07:43:50;33.63;;;17.30;;
25780;SDS011;13626;48.128;11.628;2022-12-10T07:46:21;35.53;;;18.45;;
25780;SDS011;13626;48.128;11.628;2022-12-10T07:48:49;32.78;;;16.90;;
25780;SDS011;13626;48.128;11.628;2022-12-10T07:51:17;37.67;;;18.05;;
25780;SDS011;13626;48.128;11.628;2022-12-10T07:53:44;37.13;;;18.38;;
25780;SDS011;13626;48.128;11.628;2022-12-10T07:56:11;32.53;;;16.25;;
25780;SDS011;13626;48.128;11.628;2022-12-10T07:58:42;30.15;;;16.48;;
25780;SDS011;13626;48.128;11.628;2022-12-10T08:01:13;33.42;;;17.48;;
25780;SDS011;13626;48.128;11.628;2022-12-10T08:03:41;31.60;;;17.08;;
25780;SDS011;13626;48.128;11.628;2022-12-10T08:06:09;36.00;;;17.63;;
25780;SDS011;13626;48.128;11.628;2022-12-10T08:08:37;35.47;;;17.83;;
25780;SDS011;13626;48.128;11.628;2022-12-10T08:11:05;31.02;;;16.58;;
25780;SDS011;13626;48.128;11.628;2022-12-10T08:13:33;32.70;;;18.13;;
25780;SDS011;13626;48.128;11.628;2022-12-10T08:16:01;34.38;;;17.85;;
25780;SDS011;13626;48.128;11.628;2022-12-10T08:18:29;35.65;;;17.92;;
25780;SDS011;13626;48.128;11.628;2022-12-10T08:20:56;36.95;;;17.08;;
25780;SDS011;13626;48.128;11.628;2022-12-10T08:23:24;33.83;;;16.60;;
25780;SDS011;13626;48.128;11.628;2022-12-10T08:25:51;32.60;;;16.58;;
25780;SDS011;13626;48.128;11.628;2022-12-10T08:28:18;32.05;;;16.88;;
25780;SDS011;13626;48.128;11.628;2022-12-10T08:30:46;30.83;;;16.38;;
25780;SDS011;13626;48.128;11.628;2022-12-10T08:33:13;30.40;;;16.38;;
25780;SDS011;13626;48.128;11.628;2022-12-10T08:35:40;30.45;;;16.17;;
25780;SDS011;13626;48.128;11.628;2022-12-10T08:38:07;32.92;;;17.20;;
25780;SDS011;13626;48.128;11.628;2022-12-10T08:40:38;31.30;;;16.75;;
25780;SDS011;13626;48.128;11.628;2022-12-10T08:43:05;32.47;;;16.90;;
25780;SDS011;13626;48.128;11.628;2022-12-10T08:45:33;32.97;;;17.27;;
25780;SDS011;13626;48.128;11.628;2022-12-10T08:48:00;35.28;;;18.25;;
25780;SDS011;13626;48.128;11.628;2022-12-10T08:50:28;35.33;;;17.70;;
25780;SDS011;13626;48.128;11.628;2022-12-10T08:52:55;30.95;;;16.75;;
25780;SDS011;13626;48.128;11.628;2022-12-10T08:55:22;33.40;;;17.30;;
25780;SDS011;13626;48.128;11.628;2022-12-10T08:57:49;32.40;;;16.52;;
25780;SDS011;13626;48.128;11.628;2022-12-10T09:00:16;31.42;;;17.40;;
25780;SDS011;13626;48.128;11.628;2022-12-10T09:02:45;31.13;;;17.10;;
25780;SDS011;13626;48.128;11.628;2022-12-10T09:05:12;35.08;;;17.40;;
25780;SDS011;13626;48.128;11.628;2022-12-10T09:07:39;34.25;;;17.60;;
25780;SDS011;13626;48.128;11.628;2022-12-10T09:10:07;33.25;;;18.45;;
25780;SDS011;13626;48.128;11.628;2022-12-10T09:12:37;35.25;;;18.58;;
25780;SDS011;13626;48.128;11.628;2022-12-10T09:15:05;34.90;;;17.88;;
25780;SDS011;13626;48.128;11.628;2022-12-10T09:17:34;38.22;;;18.40;;
25780;SDS011;13626;48.128;11.628;2022-12-10T09:20:01;35.42;;;17.55;;
25780;SDS011;13626;48.128;11.628;2022-12-10T09:22:28;37.05;;;18.42;;
25780;SDS011;13626;48.128;11.628;2022-12-10T09:24:55;38.63;;;17.92;;
25780;SDS011;13626;48.128;11.628;2022-12-10T09:27:22;37.53;;;18.35;;
25780;SDS011;13626;48.128;11.628;2022-12-10T09:29:50;40.47;;;18.90;;
25780;SDS011;13626;48.128;11.628;2022-12-10T09:32:17;40.72;;;19.20;;
25780;SDS011;13626;48.128;11.628;2022-12-10T09:34:44;37.25;;;18.85;;
25780;SDS011;13626;48.128;11.628;2022-12-10T09:37:11;36.95;;;19.08;;
25780;SDS011;13626;48.128;11.628;2022-12-10T09:39:38;38.03;;;18.70;;
25780;SDS011;13626;48.128;11.628;2022-12-10T09:42:30;37.75;;;18.15;;
25780;SDS011;13626;48.128;11.628;2022-12-10T09:45:11;36.13;;;18.02;;
25780;SDS011;13626;48.128;11.628;2022-12-10T09:47:46;38.13;;;18.85;;
25780;SDS011;13626;48.128;11.628;2022-12-10T09:52:59;36.60;;;19.15;;
25780;SDS011;13626;48.128;11.628;2022-12-10T09:55:34;41.70;;;19.02;;
25780;SDS011;13626;48.128;11.628;2022-12-10T09:58:04;38.67;;;18.98;;
25780;SDS011;13626;48.128;11.628;2022-12-10T10:00:34;37.78;;;18.75;;
25780;SDS011;13626;48.128;11.628;2022-12-10T10:03:02;36.58;;;18.77;;
25780;SDS011;13626;48.128;11.628;2022-12-10T10:05:38;39.38;;;18.90;;
25780;SDS011;13626;48.128;11.628;2022-12-10T10:08:12;36.97;;;18.20;;
25780;SDS011;13626;48.128;11.628;2022-12-10T10:10:40;36.17;;;18.17;;
25780;SDS011;13626;48.128;11.628;2022-12-10T10:15:36;36.63;;;18.23;;
25780;SDS011;13626;48.128;11.628;2022-12-10T10:20:49;41.00;;;19.73;;
25780;SDS011;13626;48.128;11.628;2022-12-10T10:23:17;34.80;;;18.25;;
25780;SDS011;13626;48.128;11.628;2022-12-10T10:25:44;36.00;;;17.58;;
25780;SDS011;13626;48.128;11.628;2022-12-10T10:28:13;39.00;;;18.95;;
25780;SDS011;13626;48.128;11.628;2022-12-10T10:30:43;39.88;;;19.05;;
25780;SDS011;13626;48.128;11.628;2022-12-10T10:33:11;39.70;;;19.25;;
25780;SDS011;13626;48.128;11.628;2022-12-10T10:35:43;42.05;;;18.60;;
25780;SDS011;13626;48.128;11.628;2022-12-10T10:38:19;39.83;;;18.80;;
25780;SDS011;13626;48.128;11.628;2022-12-10T10:40:50;43.80;;;19.50;;
25780;SDS011;13626;48.128;11.628;2022-12-10T10:43:20;41.13;;;19.85;;
25780;SDS011;13626;48.128;11.628;2022-12-10T10:45:49;38.72;;;18.90;;
25780;SDS011;13626;48.128;11.628;2022-12-10T10:48:18;39.80;;;18.65;;
25780;SDS011;13626;48.128;11.628;2022-12-10T10:53:35;37.83;;;19.25;;
25780;SDS011;13626;48.128;11.628;2022-12-10T10:56:13;38.65;;;18.80;;
25780;SDS011;13626;48.128;11.628;2022-12-10T10:58:58;34.58;;;17.95;;
25780;SDS011;13626;48.128;11.628;2022-12-10T11:04:14;35.45;;;18.05;;
25780;SDS011;13626;48.128;11.628;2022-12-10T11:06:42;36.92;;;17.98;;
25780;SDS011;13626;48.128;11.628;2022-12-10T11:09:18;35.33;;;17.52;;
25780;SDS011;13626;48.128;11.628;2022-12-10T11:11:51;36.72;;;18.20;;
25780;SDS011;13626;48.128;11.628;2022-12-10T11:16:49;38.92;;;18.30;;
25780;SDS011;13626;48.128;11.628;2022-12-10T11:19:21;38.67;;;19.05;;
25780;SDS011;13626;48.128;11.628;2022-12-10T11:21:48;39.83;;;18.45;;
25780;SDS011;13626;48.128;11.628;2022-12-10T11:24:17;35.45;;;17.45;;
25780;SDS011;13626;48.128;11.628;2022-12-10T11:34:19;35.22;;;18.10;;
25780;SDS011;13626;48.128;11.628;2022-12-10T11:36:51;37.28;;;18.58;;
25780;SDS011;13626;48.128;11.628;2022-12-10T11:39:26;38.47;;;17.55;;
25780;SDS011;13626;48.128;11.628;2022-12-10T11:47:23;35.92;;;18.70;;
25780;SDS011;13626;48.128;11.628;2022-12-10T11:50:01;35.10;;;17.77;;
25780;SDS011;13626;48.128;11.628;2022-12-10T11:52:41;33.50;;;17.35;;
25780;SDS011;13626;48.128;11.628;2022-12-10T11:55:17;36.70;;;17.63;;
